sensor_id;sensor_type;location;lat;lon;timestamp;P1;durP1;ratioP1;P2;durP2;ratioP2
54953;SDS011;40855;51.072;5.402;2023-04-01T00:00:22;6.03;;;1.35;;
54953;SDS011;40855;51.072;5.402;2023-04-01T00:02:48;5.70;;;1.30;;
54953;SDS011;40855;51.072;5.402;2023-04-01T00:05:14;5.32;;;1.15;;
54953;SDS011;40855;51.072;5.402;2023-04-01T00:07:41;2.05;;;0.90;;
54953;SDS011;40855;51.072;5.402;2023-04-01T00:10:08;2.38;;;1.08;;
54953;SDS011;40855;51.072;5.402;2023-04-01T00:12:35;4.00;;;1.40;;
54953;SDS011;40855;51.072;5.402;2023-04-01T00:15:02;4.53;;;1.10;;
54953;SDS011;40855;51.072;5.402;2023-04-01T00:17:28;6.78;;;1.10;;
54953;SDS011;40855;51.072;5.402;2023-04-01T00:19:55;4.53;;;1.15;;
54953;SDS011;40855;51.072;5.402;2023-04-01T00:22:21;12.35;;;1.38;;
54953;SDS011;40855;51.072;5.402;2023-04-01T00:24:47;8.63;;;1.35;;
54953;SDS011;40855;51.072;5.402;2023-04-01T00:27:13;4.80;;;1.13;;
54953;SDS011;40855;51.072;5.402;2023-04-01T00:29:41;6.18;;;1.48;;
54953;SDS011;40855;51.072;5.402;2023-04-01T00:32:07;4.03;;;1.10;;
54953;SDS011;40855;51.072;5.402;2023-04-01T00:34:33;5.13;;;1.67;;
54953;SDS011;40855;51.072;5.402;2023-04-01T00:36:59;5.07;;;0.90;;
54953;SDS011;40855;51.072;5.402;2023-04-01T00:39:25;7.13;;;1.20;;
54953;SDS011;40855;51.072;5.402;2023-04-01T00:41:54;4.75;;;1.25;;
54953;SDS011;40855;51.072;5.402;2023-04-01T00:44:23;5.53;;;1.17;;
54953;SDS011;40855;51.072;5.402;2023-04-01T00:46:50;3.45;;;0.85;;
54953;SDS011;40855;51.072;5.402;2023-04-01T00:49:17;4.47;;;1.02;;
54953;SDS011;40855;51.072;5.402;2023-04-01T00:51:48;5.05;;;1.02;;
54953;SDS011;40855;51.072;5.402;2023-04-01T00:54:17;3.72;;;0.73;;
54953;SDS011;40855;51.072;5.402;2023-04-01T00:57:03;4.65;;;1.05;;
54953;SDS011;40855;51.072;5.402;2023-04-01T00:59:37;4.50;;;0.80;;
54953;SDS011;40855;51.072;5.402;2023-04-01T01:02:07;3.88;;;1.00;;
54953;SDS011;40855;51.072;5.402;2023-04-01T01:04:35;3.13;;;1.08;;
54953;SDS011;40855;51.072;5.402;2023-04-01T01:15:23;3.90;;;1.20;;
54953;SDS011;40855;51.072;5.402;2023-04-01T01:31:23;1.73;;;1.23;;
54953;SDS011;40855;51.072;5.402;2023-04-01T01:36:42;3.75;;;1.17;;
54953;SDS011;40855;51.072;5.402;2023-04-01T01:39:12;7.13;;;1.52;;
54953;SDS011;40855;51.072;5.402;2023-04-01T01:41:39;2.33;;;1.40;;
54953;SDS011;40855;51.072;5.402;2023-04-01T01:44:08;2.10;;;0.95;;
54953;SDS011;40855;51.072;5.402;2023-04-01T01:46:36;6.80;;;1.60;;
54953;SDS011;40855;51.072;5.402;2023-04-01T01:49:04;3.83;;;1.02;;
54953;SDS011;40855;51.072;5.402;2023-04-01T01:51:33;0.90;;;0.85;;
54953;SDS011;40855;51.072;5.402;2023-04-01T01:53:59;1.80;;;0.80;;
54953;SDS011;40855;51.072;5.402;2023-04-01T01:56:25;3.28;;;0.70;;
54953;SDS011;40855;51.072;5.402;2023-04-01T01:58:55;3.20;;;0.95;;
54953;SDS011;40855;51.072;5.402;2023-04-01T02:01:25;2.75;;;0.85;;
54953;SDS011;40855;51.072;5.402;2023-04-01T02:03:53;6.13;;;1.08;;
54953;SDS011;40855;51.072;5.402;2023-04-01T02:06:22;3.97;;;1.08;;
54953;SDS011;40855;51.072;5.402;2023-04-01T02:11:22;5.18;;;1.00;;
54953;SDS011;40855;51.072;5.402;2023-04-01T02:14:01;1.88;;;0.88;;
54953;SDS011;40855;51.072;5.402;2023-04-01T02:19:07;2.90;;;0.70;;
54953;SDS011;40855;51.072;5.402;2023-04-01T02:21:34;3.20;;;0.80;;
54953;SDS011;40855;51.072;5.402;2023-04-01T02:24:02;2.83;;;0.70;;
54953;SDS011;40855;51.072;5.402;2023-04-01T02:26:30;2.85;;;1.20;;
54953;SDS011;40855;51.072;5.402;2023-04-01T02:28:56;2.83;;;0.98;;
54953;SDS011;40855;51.072;5.402;2023-04-01T02:31:24;3.63;;;0.90;;
54953;SDS011;40855;51.072;5.402;2023-04-01T02:33:51;1.80;;;0.60;;
54953;SDS011;40855;51.072;5.402;2023-04-01T02:36:18;1.92;;;0.63;;
54953;SDS011;40855;51.072;5.402;2023-04-01T02:38:44;1.30;;;0.82;;
54953;SDS011;40855;51.072;5.402;2023-04-01T02:41:11;4.40;;;1.13;;
54953;SDS011;40855;51.072;5.402;2023-04-01T02:43:37;4.53;;;1.33;;
54953;SDS011;40855;51.072;5.402;2023-04-01T02:46:03;1.05;;;0.80;;
54953;SDS011;40855;51.072;5.402;2023-04-01T02:48:29;2.90;;;0.93;;
54953;SDS011;40855;51.072;5.402;2023-04-01T02:50:54;3.88;;;0.80;;
54953;SDS011;40855;51.072;5.402;2023-04-01T02:53:20;3.15;;;1.20;;
54953;SDS011;40855;51.072;5.402;2023-04-01T02:55:46;2.55;;;1.17;;
54953;SDS011;40855;51.072;5.402;2023-04-01T02:58:15;5.97;;;1.65;;
54953;SDS011;40855;51.072;5.402;2023-04-01T03:00:41;2.35;;;0.90;;
54953;SDS011;40855;51.072;5.402;2023-04-01T03:03:08;4.25;;;1.35;;
54953;SDS011;40855;51.072;5.402;2023-04-01T03:05:33;10.82;;;1.40;;
54953;SDS011;40855;51.072;5.402;2023-04-01T03:07:59;3.63;;;1.38;;
54953;SDS011;40855;51.072;5.402;2023-04-01T03:10:25;1.92;;;1.20;;
54953;SDS011;40855;51.072;5.402;2023-04-01T03:12:50;2.72;;;1.20;;
54953;SDS011;40855;51.072;5.402;2023-04-01T03:15:16;2.88;;;1.17;;
54953;SDS011;40855;51.072;5.402;2023-04-01T03:17:42;1.20;;;1.10;;
54953;SDS011;40855;51.072;5.402;2023-04-01T03:20:08;1.88;;;1.30;;
54953;SDS011;40855;51.072;5.402;2023-04-01T03:22:35;2.72;;;1.50;;
54953;SDS011;40855;51.072;5.402;2023-04-01T03:25:02;6.15;;;1.50;;
54953;SDS011;40855;51.072;5.402;2023-04-01T03:27:29;2.92;;;1.55;;
54953;SDS011;40855;51.072;5.402;2023-04-01T03:29:54;4.45;;;1.65;;
54953;SDS011;40855;51.072;5.402;2023-04-01T03:32:20;3.75;;;1.55;;
54953;SDS011;40855;51.072;5.402;2023-04-01T03:34:46;4.20;;;1.70;;
54953;SDS011;40855;51.072;5.402;2023-04-01T03:37:12;1.50;;;1.40;;
54953;SDS011;40855;51.072;5.402;2023-04-01T03:39:37;5.15;;;1.77;;
54953;SDS011;40855;51.072;5.402;2023-04-01T03:42:03;2.13;;;1.52;;
54953;SDS011;40855;51.072;5.402;2023-04-01T03:44:32;2.80;;;2.00;;
54953;SDS011;40855;51.072;5.402;2023-04-01T03:46:58;2.63;;;1.80;;
54953;SDS011;40855;51.072;5.402;2023-04-01T03:49:25;3.05;;;1.65;;
54953;SDS011;40855;51.072;5.402;2023-04-01T03:51:50;5.18;;;1.83;;
54953;SDS011;40855;51.072;5.402;2023-04-01T03:54:17;7.05;;;1.70;;
54953;SDS011;40855;51.072;5.402;2023-04-01T03:56:43;2.50;;;1.98;;
54953;SDS011;40855;51.072;5.402;2023-04-01T03:59:08;1.63;;;1.35;;
54953;SDS011;40855;51.072;5.402;2023-04-01T04:01:34;4.75;;;1.80;;
54953;SDS011;40855;51.072;5.402;2023-04-01T04:04:00;6.38;;;2.00;;
54953;SDS011;40855;51.072;5.402;2023-04-01T04:06:26;5.80;;;1.80;;
54953;SDS011;40855;51.072;5.402;2023-04-01T04:08:52;2.75;;;1.40;;
54953;SDS011;40855;51.072;5.402;2023-04-01T04:11:19;4.18;;;1.70;;
54953;SDS011;40855;51.072;5.402;2023-04-01T04:13:45;3.75;;;1.60;;
54953;SDS011;40855;51.072;5.402;2023-04-01T04:16:13;4.55;;;1.67;;
54953;SDS011;40855;51.072;5.402;2023-04-01T04:18:39;2.45;;;1.35;;
54953;SDS011;40855;51.072;5.402;2023-04-01T04:21:05;3.97;;;1.48;;
54953;SDS011;40855;51.072;5.402;2023-04-01T04:23:31;2.58;;;1.30;;
54953;SDS011;40855;51.072;5.402;2023-04-01T04:28:28;4.40;;;1.63;;
54953;SDS011;40855;51.072;5.402;2023-04-01T04:30:55;4.22;;;1.50;;
54953;SDS011;40855;51.072;5.402;2023-04-01T04:33:21;4.82;;;1.63;;
54953;SDS011;40855;51.072;5.402;2023-04-01T04:35:48;3.45;;;1.23;;
54953;SDS011;40855;51.072;5.402;2023-04-01T04:38:14;2.83;;;1.38;;
54953;SDS011;40855;51.072;5.402;2023-04-01T04:40:40;1.85;;;1.10;;
54953;SDS011;40855;51.072;5.402;2023-04-01T04:43:07;1.95;;;1.25;;
54953;SDS011;40855;51.072;5.402;2023-04-01T04:45:36;4.43;;;1.00;;
54953;SDS011;40855;51.072;5.402;2023-04-01T04:48:02;2.80;;;1.05;;
54953;SDS011;40855;51.072;5.402;2023-04-01T04:50:28;1.33;;;0.95;;
54953;SDS011;40855;51.072;5.402;2023-04-01T04:52:54;1.05;;;0.80;;
54953;SDS011;40855;51.072;5.402;2023-04-01T04:55:20;2.47;;;1.23;;
54953;SDS011;40855;51.072;5.402;2023-04-01T04:57:46;2.28;;;1.30;;
54953;SDS011;40855;51.072;5.402;2023-04-01T05:00:11;2.20;;;1.10;;
54953;SDS011;40855;51.072;5.402;2023-04-01T05:02:37;1.38;;;1.00;;
54953;SDS011;40855;51.072;5.402;2023-04-01T05:05:03;1.60;;;1.10;;
54953;SDS011;40855;51.072;5.402;2023-04-01T05:07:29;1.77;;;1.48;;
54953;SDS011;40855;51.072;5.402;2023-04-01T05:09:55;1.25;;;1.08;;
54953;SDS011;40855;51.072;5.402;2023-04-01T05:12:21;1.67;;;1.58;;
54953;SDS011;40855;51.072;5.402;2023-04-01T05:14:46;1.40;;;1.25;;
54953;SDS011;40855;51.072;5.402;2023-04-01T05:17:12;2.63;;;1.52;;
54953;SDS011;40855;51.072;5.402;2023-04-01T05:19:38;1.73;;;1.50;;
54953;SDS011;40855;51.072;5.402;2023-04-01T05:22:04;2.65;;;1.40;;
54953;SDS011;40855;51.072;5.402;2023-04-01T05:24:31;1.65;;;1.55;;
54953;SDS011;40855;51.072;5.402;2023-04-01T05:26:57;3.50;;;1.70;;
54953;SDS011;40855;51.072;5.402;2023-04-01T05:29:24;2.13;;;1.48;;
54953;SDS011;40855;51.072;5.402;2023-04-01T05:31:50;1.77;;;1.67;;
54953;SDS011;40855;51.072;5.402;2023-04-01T05:34:16;4.68;;;2.13;;
54953;SDS011;40855;51.072;5.402;2023-04-01T05:36:42;2.65;;;1.88;;
54953;SDS011;40855;51.072;5.402;2023-04-01T05:39:08;3.55;;;2.03;;
54953;SDS011;40855;51.072;5.402;2023-04-01T05:41:37;2.30;;;2.10;;
54953;SDS011;40855;51.072;5.402;2023-04-01T05:44:04;2.13;;;2.03;;
54953;SDS011;40855;51.072;5.402;2023-04-01T05:46:30;2.42;;;2.10;;
54953;SDS011;40855;51.072;5.402;2023-04-01T05:48:56;2.55;;;2.10;;
54953;SDS011;40855;51.072;5.402;2023-04-01T05:51:22;2.50;;;2.30;;
54953;SDS011;40855;51.072;5.402;2023-04-01T05:53:48;3.20;;;2.70;;
54953;SDS011;40855;51.072;5.402;2023-04-01T05:56:14;2.08;;;1.98;;
54953;SDS011;40855;51.072;5.402;2023-04-01T05:58:40;2.10;;;1.90;;
54953;SDS011;40855;51.072;5.402;2023-04-01T06:01:10;3.00;;;2.03;;
54953;SDS011;40855;51.072;5.402;2023-04-01T06:03:36;5.03;;;2.10;;
54953;SDS011;40855;51.072;5.402;2023-04-01T06:06:02;2.40;;;2.20;;
54953;SDS011;40855;51.072;5.402;2023-04-01T06:08:29;4.53;;;2.90;;
54953;SDS011;40855;51.072;5.402;2023-04-01T06:11:59;2.70;;;2.50;;
54953;SDS011;40855;51.072;5.402;2023-04-01T06:14:20;2.80;;;2.58;;
54953;SDS011;40855;51.072;5.402;2023-04-01T06:19:43;4.25;;;2.50;;
54953;SDS011;40855;51.072;5.402;2023-04-01T06:33:40;3.90;;;3.03;;
54953;SDS011;40855;51.072;5.402;2023-04-01T06:54:58;3.65;;;3.30;;
54953;SDS011;40855;51.072;5.402;2023-04-01T06:57:49;3.50;;;3.20;;
54953;SDS011;40855;51.072;5.402;2023-04-01T07:05:48;5.43;;;3.28;;
54953;SDS011;40855;51.072;5.402;2023-04-01T07:08:20;3.63;;;3.33;;
54953;SDS011;40855;51.072;5.402;2023-04-01T07:10:53;3.50;;;3.20;;
54953;SDS011;40855;51.072;5.402;2023-04-01T07:13:49;4.20;;;3.00;;
54953;SDS011;40855;51.072;5.402;2023-04-01T07:16:30;2.47;;;2.28;;
54953;SDS011;40855;51.072;5.402;2023-04-01T07:19:21;3.28;;;2.50;;
54953;SDS011;40855;51.072;5.402;2023-04-01T07:22:01;1.80;;;1.70;;
54953;SDS011;40855;51.072;5.402;2023-04-01T07:24:40;1.55;;;1.45;;
54953;SDS011;40855;51.072;5.402;2023-04-01T07:27:09;1.80;;;1.70;;
54953;SDS011;40855;51.072;5.402;2023-04-01T07:29:36;2.97;;;1.65;;
54953;SDS011;40855;51.072;5.402;2023-04-01T07:38:02;1.60;;;1.50;;
54953;SDS011;40855;51.072;5.402;2023-04-01T07:43:41;1.60;;;1.50;;
54953;SDS011;40855;51.072;5.402;2023-04-01T07:54:37;1.17;;;1.10;;
54953;SDS011;40855;51.072;5.402;2023-04-01T07:57:34;2.17;;;1.15;;
54953;SDS011;40855;51.072;5.402;2023-04-01T08:00:20;1.48;;;1.17;;
54953;SDS011;40855;51.072;5.402;2023-04-01T08:03:27;1.20;;;1.10;;
54953;SDS011;40855;51.072;5.402;2023-04-01T08:14:23;1.50;;;1.10;;
54953;SDS011;40855;51.072;5.402;2023-04-01T08:17:19;1.30;;;1.20;;
54953;SDS011;40855;51.072;5.402;2023-04-01T08:31:51;2.35;;;1.33;;
54953;SDS011;40855;51.072;5.402;2023-04-01T08:34:37;1.50;;;1.40;;
54953;SDS011;40855;51.072;5.402;2023-04-01T08:37:11;2.17;;;2.08;;
54953;SDS011;40855;51.072;5.402;2023-04-01T08:39:54;1.77;;;1.67;;
54953;SDS011;40855;51.072;5.402;2023-04-01T09:01:46;1.95;;;1.85;;
54953;SDS011;40855;51.072;5.402;2023-04-01T09:06:52;2.30;;;2.15;;
54953;SDS011;40855;51.072;5.402;2023-04-01T09:35:22;3.15;;;2.50;;
54953;SDS011;40855;51.072;5.402;2023-04-01T09:54:40;3.40;;;2.70;;
54953;SDS011;40855;51.072;5.402;2023-04-01T10:17:08;2.40;;;2.30;;
54953;SDS011;40855;51.072;5.402;2023-04-01T10:34:09;2.40;;;2.30;;
54953;SDS011;40855;51.072;5.402;2023-04-01T10:37:15;2.67;;;2.47;;
54953;SDS011;40855;51.072;5.402;2023-04-01T10:42:59;3.17;;;2.08;;
54953;SDS011;40855;51.072;5.402;2023-04-01T10:54:08;2.67;;;2.47;;
54953;SDS011;40855;51.072;5.402;2023-04-01T11:02:29;2.53;;;2.42;;
54953;SDS011;40855;51.072;5.402;2023-04-01T11:08:03;4.32;;;2.50;;
54953;SDS011;40855;51.072;5.402;2023-04-01T11:13:50;2.63;;;2.42;;
54953;SDS011;40855;51.072;5.402;2023-04-01T11:25:18;2.47;;;2.33;;
54953;SDS011;40855;51.072;5.402;2023-04-01T11:31:10;2.60;;;2.50;;
54953;SDS011;40855;51.072;5.402;2023-04-01T11:33:53;2.90;;;2.70;;
54953;SDS011;40855;51.072;5.402;2023-04-01T11:39:14;3.20;;;3.00;;
54953;SDS011;40855;51.072;5.402;2023-04-01T11:44:43;3.80;;;3.33;;
54953;SDS011;40855;51.072;5.402;2023-04-01T11:48:09;3.13;;;2.95;;
54953;SDS011;40855;51.072;5.402;2023-04-01T11:59:30;3.67;;;3.47;;
54953;SDS011;40855;51.072;5.402;2023-04-01T12:02:29;3.70;;;3.30;;
54953;SDS011;40855;51.072;5.402;2023-04-01T12:08:12;3.25;;;2.95;;
54953;SDS011;40855;51.072;5.402;2023-04-01T12:21:50;3.78;;;3.50;;
54953;SDS011;40855;51.072;5.402;2023-04-01T12:32:55;3.92;;;3.63;;
54953;SDS011;40855;51.072;5.402;2023-04-01T12:41:30;4.95;;;4.53;;
54953;SDS011;40855;51.072;5.402;2023-04-01T12:46:59;6.75;;;4.30;;
54953;SDS011;40855;51.072;5.402;2023-04-01T12:52:35;7.30;;;5.40;;
54953;SDS011;40855;51.072;5.402;2023-04-01T12:55:36;6.32;;;4.82;;
54953;SDS011;40855;51.072;5.402;2023-04-01T12:58:15;6.18;;;5.25;;
54953;SDS011;40855;51.072;5.402;2023-04-01T13:12:00;5.95;;;5.15;;
54953;SDS011;40855;51.072;5.402;2023-04-01T13:20:41;7.15;;;5.38;;
54953;SDS011;40855;51.072;5.402;2023-04-01T13:23:29;7.80;;;5.70;;
54953;SDS011;40855;51.072;5.402;2023-04-01T13:37:15;5.30;;;4.75;;
54953;SDS011;40855;51.072;5.402;2023-04-01T13:42:24;4.93;;;4.47;;
